createdAt,value
2022-08-05T00:00:21.616Z,53.67
2022-08-05T00:02:52.284Z,55.43
2022-08-05T00:06:02.985Z,53.70
2022-08-05T00:08:35.283Z,51.83
2022-08-05T00:11:04.828Z,51.58
2022-08-05T00:13:53.065Z,51.92
2022-08-05T00:16:35.646Z,52.36
2022-08-05T00:19:06.805Z,53.18
2022-08-05T00:21:36.259Z,53.55
2022-08-05T00:24:10.575Z,54.38
2022-08-05T00:26:43.409Z,55.60
2022-08-05T00:29:25.745Z,56.95
2022-08-05T00:32:13.435Z,58.39
2022-08-05T00:35:03.902Z,60.59
2022-08-05T00:37:52.675Z,62.70
2022-08-05T00:40:28.093Z,63.69
2022-08-05T00:43:07.685Z,63.96
2022-08-05T00:45:43.146Z,64.84
2022-08-05T00:48:15.243Z,65.69
2022-08-05T00:50:47.843Z,65.42
2022-08-05T00:54:00.439Z,65.12
2022-08-05T00:56:09.500Z,65.80
2022-08-05T00:58:42.499Z,65.48
2022-08-05T01:01:16.625Z,65.88
2022-08-05T01:04:14.275Z,65.96
2022-08-05T01:06:48.482Z,66.16
2022-08-05T01:09:20.120Z,67.24
2022-08-05T01:11:56.105Z,67.38
2022-08-05T01:14:37.252Z,67.64
2022-08-05T01:17:22.780Z,68.32
2022-08-05T01:20:27.577Z,68.81
2022-08-05T01:23:22.901Z,68.40
2022-08-05T01:26:26.315Z,67.72
2022-08-05T01:29:09.815Z,67.66
2022-08-05T01:31:56.508Z,68.23
2022-08-05T01:34:37.546Z,68.02
2022-08-05T01:37:44.287Z,67.49
2022-08-05T01:40:17.768Z,67.73
2022-08-05T01:42:50.522Z,68.35
2022-08-05T01:45:22.061Z,68.40
2022-08-05T01:47:55.573Z,68.79
2022-08-05T01:50:54.807Z,68.96
2022-08-05T01:53:58.025Z,68.94
2022-08-05T01:58:13.737Z,68.99
2022-08-05T01:59:18.066Z,68.96
2022-08-05T02:01:54.746Z,68.52
2022-08-05T02:04:30.228Z,68.23
2022-08-05T02:07:03.524Z,67.85
2022-08-05T02:09:35.804Z,67.96
2022-08-05T02:12:54.986Z,68.06
2022-08-05T02:15:43.286Z,68.80
2022-08-05T02:18:34.990Z,69.04
2022-08-05T02:21:15.671Z,68.95
2022-08-05T02:23:50.236Z,69.03
2022-08-05T02:26:29.534Z,68.44
2022-08-05T02:28:59.541Z,68.19
2022-08-05T02:31:35.797Z,68.05
2022-08-05T02:34:15.297Z,68.49
2022-08-05T02:36:58.764Z,69.12
2022-08-05T02:39:38.245Z,68.85
2022-08-05T02:42:12.195Z,68.33
2022-08-05T02:44:57.434Z,68.20
2022-08-05T02:47:58.381Z,67.80
2022-08-05T02:50:18.915Z,67.80
2022-08-05T02:52:49.470Z,67.40
2022-08-05T02:55:54.570Z,67.89
2022-08-05T02:58:13.300Z,68.68
2022-08-05T03:00:46.565Z,69.32
2022-08-05T03:03:23.467Z,69.52
2022-08-05T03:06:56.940Z,69.81
2022-08-05T03:08:44.274Z,69.99
2022-08-05T03:11:54.625Z,70.27
2022-08-05T03:14:14.715Z,70.57
2022-08-05T03:16:43.994Z,71.11
2022-08-05T03:19:20.344Z,71.26
2022-08-05T03:22:02.466Z,71.44
2022-08-05T03:24:34.268Z,71.34
2022-08-05T03:27:06.693Z,71.16
2022-08-05T03:29:44.738Z,71.16
2022-08-05T03:32:17.046Z,71.16
2022-08-05T03:34:51.346Z,71.11
2022-08-05T03:37:22.414Z,70.95
2022-08-05T03:40:01.425Z,70.75
2022-08-05T03:42:41.520Z,70.65
2022-08-05T03:45:21.984Z,70.58
2022-08-05T03:47:56.935Z,70.58
2022-08-05T03:50:49.525Z,70.56
2022-08-05T03:55:06.866Z,70.57
2022-08-05T03:56:49.967Z,70.71
2022-08-05T03:59:29.186Z,70.88
2022-08-05T04:02:39.182Z,70.69
2022-08-05T04:05:11.546Z,70.58
2022-08-05T04:07:53.013Z,70.47
2022-08-05T04:10:33.337Z,70.23
2022-08-05T04:13:09.401Z,70.32
2022-08-05T04:15:39.029Z,70.31
2022-08-05T04:18:26.229Z,70.28
2022-08-05T04:20:59.770Z,70.20
2022-08-05T04:24:05.082Z,70.03
2022-08-05T04:26:20.926Z,69.70
2022-08-05T04:28:51.136Z,69.61
2022-08-05T04:31:22.109Z,69.89
2022-08-05T04:34:31.175Z,70.18
2022-08-05T04:36:50.275Z,70.33
2022-08-05T04:39:23.176Z,70.35
2022-08-05T04:41:52.836Z,70.51
2022-08-05T04:44:29.216Z,70.97
2022-08-05T04:47:09.483Z,71.50
2022-08-05T04:50:02.976Z,71.73
2022-08-05T04:52:33.359Z,71.78
2022-08-05T04:55:14.209Z,71.75
2022-08-05T04:57:54.154Z,71.24
2022-08-05T05:00:24.026Z,71.01
2022-08-05T05:02:54.071Z,70.93
2022-08-05T05:05:28.455Z,70.83
2022-08-05T05:08:14.109Z,70.85
2022-08-05T05:10:57.132Z,71.00
2022-08-05T05:13:26.276Z,71.09
2022-08-05T05:16:02.222Z,71.28
2022-08-05T05:18:35.345Z,71.29
2022-08-05T05:21:06.064Z,71.47
2022-08-05T05:23:39.029Z,71.71
2022-08-05T05:26:28.541Z,71.79
2022-08-05T05:29:02.592Z,71.88
2022-08-05T05:31:46.161Z,71.81
2022-08-05T05:34:17.317Z,71.73
2022-08-05T05:36:51.228Z,71.96
2022-08-05T05:39:20.766Z,72.00
2022-08-05T05:41:54.409Z,72.11
2022-08-05T05:44:35.706Z,72.23
2022-08-05T05:47:13.456Z,72.35
2022-08-05T05:50:01.562Z,72.41
2022-08-05T05:52:38.058Z,72.54
2022-08-05T05:55:16.909Z,72.63
2022-08-05T05:57:52.428Z,72.75
2022-08-05T06:00:27.708Z,72.73
2022-08-05T06:03:40.757Z,72.71
2022-08-05T06:05:55.518Z,72.54
2022-08-05T06:08:31.851Z,72.55
2022-08-05T06:11:02.991Z,72.51
2022-08-05T06:13:40.830Z,72.53
2022-08-05T06:16:29.541Z,72.52
2022-08-05T06:19:05.750Z,72.41
2022-08-05T06:21:38.786Z,72.29
2022-08-05T06:24:12.786Z,72.28
2022-08-05T06:26:52.012Z,72.19
2022-08-05T06:29:52.008Z,72.07
2022-08-05T06:32:26.262Z,71.75
2022-08-05T06:34:59.665Z,71.71
2022-08-05T06:37:57.963Z,71.65
2022-08-05T06:40:27.829Z,71.83
2022-08-05T06:42:57.769Z,71.67
2022-08-05T06:45:44.862Z,71.64
2022-08-05T06:48:47.365Z,71.58
2022-08-05T06:51:09.594Z,71.69
2022-08-05T06:53:39.515Z,71.76
2022-08-05T06:56:25.847Z,72.06
2022-08-05T06:58:57.317Z,72.31
2022-08-05T07:01:27.582Z,72.26
2022-08-05T07:04:03.157Z,72.31
2022-08-05T07:06:32.780Z,72.51
2022-08-05T07:09:04.382Z,72.60
2022-08-05T07:11:37.124Z,72.72
2022-08-05T07:14:30.059Z,72.83
2022-08-05T07:18:08.338Z,72.82
2022-08-05T07:20:32.169Z,72.70
2022-08-05T07:22:45.707Z,72.57
2022-08-05T07:25:54.433Z,72.35
2022-08-05T07:28:09.598Z,72.09
2022-08-05T07:30:41.298Z,71.91
2022-08-05T07:33:16.687Z,71.63
2022-08-05T07:36:01.558Z,71.69
2022-08-05T07:38:43.350Z,71.88
2022-08-05T07:42:13.933Z,72.09
2022-08-05T07:44:19.046Z,72.25
2022-08-05T07:46:50.698Z,72.26
2022-08-05T07:49:21.560Z,72.23
2022-08-05T07:51:54.223Z,72.27
2022-08-05T07:54:31.148Z,72.06
2022-08-05T07:57:16.927Z,71.89
2022-08-05T07:59:54.731Z,71.69
2022-08-05T08:03:15.420Z,71.83
2022-08-05T08:05:20.108Z,72.09
2022-08-05T08:08:00.230Z,72.20
2022-08-05T08:10:30.803Z,72.28
2022-08-05T08:13:00.739Z,72.42
2022-08-05T08:16:33.433Z,72.50
2022-08-05T08:18:21.245Z,72.59
2022-08-05T08:21:02.448Z,72.62
2022-08-05T08:24:01.606Z,72.51
2022-08-05T08:26:26.847Z,72.40
2022-08-05T08:29:45.515Z,72.40
2022-08-05T08:31:53.269Z,72.42
2022-08-05T08:34:29.896Z,72.40
2022-08-05T08:37:04.813Z,72.49
2022-08-05T08:39:37.488Z,72.50
2022-08-05T08:42:33.815Z,72.61
2022-08-05T08:45:17.714Z,72.66
2022-08-05T08:48:07.566Z,72.77
2022-08-05T08:51:22.091Z,72.72
2022-08-05T08:53:44.454Z,72.67
2022-08-05T08:56:14.980Z,72.68
2022-08-05T08:58:47.957Z,72.73
2022-08-05T09:01:20.034Z,72.89
2022-08-05T09:03:57.551Z,72.94
2022-08-05T09:06:30.784Z,73.01
2022-08-05T09:09:04.138Z,73.10
2022-08-05T09:11:52.007Z,73.10
2022-08-05T09:14:58.770Z,73.17
2022-08-05T09:17:41.354Z,73.19
2022-08-05T09:20:05.959Z,73.24
2022-08-05T09:23:19.964Z,73.44
2022-08-05T09:26:06.650Z,73.61
2022-08-05T09:28:41.534Z,73.76
2022-08-05T09:31:44.111Z,74.00
2022-08-05T09:34:13.153Z,74.16
2022-08-05T09:36:54.382Z,74.31
2022-08-05T09:39:39.482Z,74.36
2022-08-05T09:42:28.047Z,74.50
2022-08-05T09:45:17.468Z,74.67
2022-08-05T09:47:55.958Z,74.91
2022-08-05T09:50:43.986Z,75.14
2022-08-05T09:53:22.822Z,75.50
2022-08-05T09:56:05.154Z,75.62
2022-08-05T09:58:42.353Z,75.77
2022-08-05T10:01:32.069Z,75.92
2022-08-05T10:04:13.598Z,76.06
2022-08-05T10:07:01.466Z,76.05
2022-08-05T10:09:45.121Z,76.17
2022-08-05T10:12:30.052Z,76.04
2022-08-05T10:15:44.917Z,76.09
2022-08-05T10:18:23.884Z,76.10
2022-08-05T10:20:58.671Z,76.26
2022-08-05T10:23:59.107Z,76.41
2022-08-05T10:26:32.604Z,76.55
2022-08-05T10:29:03.632Z,76.70
2022-08-05T10:32:53.122Z,76.78
2022-08-05T10:34:25.766Z,76.71
2022-08-05T10:36:59.369Z,76.68
2022-08-05T10:39:59.194Z,76.60
2022-08-05T10:42:33.600Z,76.45
2022-08-05T10:45:20.891Z,76.40
2022-08-05T10:48:31.422Z,76.39
2022-08-05T10:51:23.196Z,76.45
2022-08-05T10:54:23.423Z,76.58
2022-08-05T10:56:58.047Z,76.60
2022-08-05T11:00:02.606Z,76.78
2022-08-05T11:02:37.620Z,76.85
2022-08-05T11:05:14.421Z,77.01
2022-08-05T11:08:34.088Z,76.90
2022-08-05T11:11:52.474Z,76.95
2022-08-05T11:14:57.428Z,77.08
2022-08-05T11:17:59.654Z,77.09
2022-08-05T11:20:44.317Z,77.22
2022-08-05T11:24:04.886Z,77.36
2022-08-05T11:26:28.590Z,77.54
2022-08-05T11:29:12.604Z,77.67
2022-08-05T11:31:58.204Z,77.65
2022-08-05T11:34:47.647Z,77.73
2022-08-05T11:38:29.891Z,77.49
2022-08-05T11:41:12.692Z,77.20
2022-08-05T11:44:40.174Z,76.98
2022-08-05T11:47:12.072Z,76.96
2022-08-05T11:49:49.694Z,76.99
2022-08-05T11:52:31.367Z,77.00
2022-08-05T11:55:07.624Z,77.03
2022-08-05T11:58:09.111Z,77.01
2022-08-05T12:00:38.199Z,77.10
2022-08-05T12:03:31.678Z,77.10
2022-08-05T12:06:09.896Z,77.09
2022-08-05T12:08:51.216Z,77.00
2022-08-05T12:11:40.430Z,76.98
2022-08-05T12:14:11.256Z,76.91
2022-08-05T12:16:45.565Z,76.97
2022-08-05T12:20:27.016Z,76.99
2022-08-05T12:22:09.655Z,76.98
2022-08-05T12:24:49.663Z,77.14
2022-08-05T12:27:32.780Z,77.32
2022-08-05T12:30:15.409Z,77.33
2022-08-05T12:32:56.349Z,77.42
2022-08-05T12:35:39.408Z,77.40
2022-08-05T12:38:10.911Z,77.41
2022-08-05T12:40:43.488Z,77.34
2022-08-05T12:43:20.798Z,77.42
2022-08-05T12:45:57.871Z,77.27
2022-08-05T12:48:33.005Z,77.20
2022-08-05T12:52:10.061Z,77.16
2022-08-05T12:54:16.539Z,77.10
2022-08-05T12:56:52.244Z,77.17
2022-08-05T13:00:08.748Z,77.25
2022-08-05T13:02:30.755Z,77.20
2022-08-05T13:05:00.509Z,77.19
2022-08-05T13:07:57.648Z,77.08
2022-08-05T13:10:20.678Z,77.08
2022-08-05T13:12:51.023Z,77.00
2022-08-05T13:15:35.824Z,76.97
2022-08-05T13:18:11.567Z,76.84
2022-08-05T13:20:50.824Z,76.79
2022-08-05T13:23:22.250Z,76.60
2022-08-05T13:25:59.419Z,76.36
2022-08-05T13:28:32.387Z,75.91
2022-08-05T13:31:11.118Z,75.57
2022-08-05T13:34:22.683Z,75.39
2022-08-05T13:36:34.409Z,75.22
2022-08-05T13:39:08.380Z,74.99
2022-08-05T13:41:54.068Z,74.99
2022-08-05T13:44:25.823Z,74.91
2022-08-05T13:47:08.535Z,74.62
2022-08-05T13:49:45.217Z,73.80
2022-08-05T13:52:29.083Z,73.69
2022-08-05T13:55:01.214Z,73.46
2022-08-05T13:57:51.158Z,73.28
2022-08-05T14:00:27.097Z,73.03
2022-08-05T14:03:01.083Z,72.82
2022-08-05T14:06:04.539Z,73.11
2022-08-05T14:08:28.070Z,73.58
2022-08-05T14:11:20.591Z,73.38
2022-08-05T14:13:54.988Z,72.66
2022-08-05T14:16:27.453Z,71.53
2022-08-05T14:18:56.736Z,71.02
2022-08-05T14:22:09.874Z,70.32
2022-08-05T14:24:15.072Z,69.65
2022-08-05T14:27:08.380Z,69.67
2022-08-05T14:29:38.490Z,68.83
2022-08-05T14:32:14.261Z,68.58
2022-08-05T14:34:46.751Z,68.48
2022-08-05T14:37:16.173Z,68.05
2022-08-05T14:39:50.098Z,67.99
2022-08-05T14:42:26.242Z,68.13
2022-08-05T14:44:56.668Z,68.08
2022-08-05T14:48:03.644Z,67.55
2022-08-05T14:50:19.013Z,67.20
2022-08-05T14:52:56.885Z,66.92
2022-08-05T14:55:39.592Z,66.43
2022-08-05T14:58:13.810Z,65.85
2022-08-05T15:00:58.946Z,65.33
2022-08-05T15:03:34.137Z,64.61
2022-08-05T15:06:15.014Z,64.18
2022-08-05T15:09:01.279Z,63.31
2022-08-05T15:11:53.254Z,62.49
2022-08-05T15:14:35.050Z,61.96
2022-08-05T15:17:45.058Z,61.56
2022-08-05T15:20:01.964Z,61.40
2022-08-05T15:22:31.163Z,61.43
2022-08-05T15:25:00.559Z,61.45
2022-08-05T15:27:42.941Z,61.09
2022-08-05T15:30:21.788Z,61.12
2022-08-05T15:32:52.274Z,60.96
2022-08-05T15:35:21.986Z,60.07
2022-08-05T15:38:32.281Z,59.85
2022-08-05T15:41:02.781Z,59.73
2022-08-05T15:43:31.203Z,59.00
2022-08-05T15:46:15.774Z,59.15
2022-08-05T15:48:52.880Z,59.10
2022-08-05T15:52:10.383Z,58.95
2022-08-05T15:54:19.874Z,58.62
2022-08-05T15:57:07.566Z,58.16
2022-08-05T15:59:38.406Z,58.23
2022-08-05T16:02:14.786Z,58.23
2022-08-05T16:04:49.832Z,57.51
2022-08-05T16:07:19.263Z,56.55
2022-08-05T16:09:52.091Z,56.70
2022-08-05T16:12:23.674Z,55.87
2022-08-05T16:14:53.162Z,55.55
2022-08-05T16:17:22.552Z,54.81
2022-08-05T16:20:12.138Z,54.06
2022-08-05T16:22:41.839Z,52.94
2022-08-05T16:25:11.724Z,52.66
2022-08-05T16:28:01.063Z,52.15
2022-08-05T16:30:33.399Z,52.28
2022-08-05T16:33:03.369Z,51.67
2022-08-05T16:35:34.620Z,51.06
2022-08-05T16:38:24.326Z,50.23
2022-08-05T16:41:00.309Z,49.06
2022-08-05T16:43:36.470Z,49.09
2022-08-05T16:46:23.505Z,49.22
2022-08-05T16:48:55.666Z,48.77
2022-08-05T16:51:30.801Z,47.80
2022-08-05T16:54:16.238Z,48.04
2022-08-05T16:56:52.145Z,46.89
2022-08-05T16:59:21.797Z,47.17
2022-08-05T17:01:53.630Z,46.68
2022-08-05T17:04:27.821Z,45.84
2022-08-05T17:07:03.305Z,45.43
2022-08-05T17:09:38.935Z,44.85
2022-08-05T17:12:50.410Z,43.89
2022-08-05T17:15:15.624Z,43.28
2022-08-05T17:17:55.073Z,43.00
2022-08-05T17:20:25.201Z,42.69
2022-08-05T17:22:55.908Z,42.80
2022-08-05T17:25:39.508Z,42.73
2022-08-05T17:28:10.171Z,42.57
2022-08-05T17:30:50.440Z,42.63
2022-08-05T17:33:23.167Z,42.09
2022-08-05T17:36:08.783Z,42.12
2022-08-05T17:38:39.709Z,42.63
2022-08-05T17:41:11.554Z,41.16
2022-08-05T17:43:59.875Z,41.13
2022-08-05T17:46:29.155Z,40.98
2022-08-05T17:48:58.455Z,39.90
2022-08-05T17:51:27.850Z,39.02
2022-08-05T17:54:09.641Z,38.41
2022-08-05T17:56:39.291Z,39.71
2022-08-05T17:59:08.705Z,38.24
2022-08-05T18:01:42.707Z,38.29
2022-08-05T18:04:21.457Z,38.46
2022-08-05T18:07:01.153Z,38.02
2022-08-05T18:09:59.501Z,37.83
2022-08-05T18:12:24.496Z,37.62
2022-08-05T18:14:54.589Z,37.27
2022-08-05T18:18:00.240Z,37.25
2022-08-05T18:20:15.193Z,36.40
2022-08-05T18:22:54.187Z,36.31
2022-08-05T18:25:25.313Z,36.31
2022-08-05T18:28:05.224Z,36.07
2022-08-05T18:30:35.499Z,36.09
2022-08-05T18:33:13.515Z,34.47
2022-08-05T18:36:00.639Z,34.43
2022-08-05T18:38:42.332Z,34.12
2022-08-05T18:41:53.739Z,34.03
2022-08-05T18:44:06.185Z,34.02
2022-08-05T18:46:37.070Z,33.88
2022-08-05T18:49:30.802Z,33.34
2022-08-05T18:52:35.643Z,33.76
2022-08-05T18:55:10.432Z,32.81
2022-08-05T18:57:53.410Z,33.16
2022-08-05T19:00:30.733Z,31.98
2022-08-05T19:03:04.767Z,32.18
2022-08-05T19:06:11.531Z,33.08
2022-08-05T19:08:30.432Z,33.21
2022-08-05T19:11:04.614Z,34.93
2022-08-05T19:13:36.926Z,35.73
2022-08-05T19:16:24.449Z,36.27
2022-08-05T19:18:57.130Z,36.98
2022-08-05T19:21:29.627Z,37.60
2022-08-05T19:24:12.725Z,37.78
2022-08-05T19:26:54.059Z,37.58
2022-08-05T19:29:36.500Z,37.33
2022-08-05T19:32:11.677Z,37.92
2022-08-05T19:34:42.006Z,37.89
2022-08-05T19:37:30.066Z,37.61
2022-08-05T19:40:16.782Z,37.61
2022-08-05T19:43:05.004Z,37.36
2022-08-05T19:45:36.437Z,37.87
2022-08-05T19:48:07.333Z,38.29
2022-08-05T19:50:45.672Z,38.27
2022-08-05T19:53:14.956Z,38.76
2022-08-05T19:56:14.384Z,37.88
2022-08-05T19:58:53.509Z,38.13
2022-08-05T20:01:28.332Z,38.12
2022-08-05T20:03:59.231Z,38.49
2022-08-05T20:06:46.516Z,38.67
2022-08-05T20:09:16.267Z,39.21
2022-08-05T20:11:47.991Z,39.48
2022-08-05T20:14:26.907Z,39.56
2022-08-05T20:16:56.973Z,40.07
2022-08-05T20:19:36.362Z,40.17
2022-08-05T20:22:10.833Z,40.43
2022-08-05T20:24:41.590Z,40.77
2022-08-05T20:27:11.808Z,41.39
2022-08-05T20:29:40.897Z,42.01
2022-08-05T20:32:10.427Z,42.52
2022-08-05T20:34:42.061Z,42.64
2022-08-05T20:37:17.741Z,42.14
2022-08-05T20:40:00.412Z,42.70
2022-08-05T20:42:29.964Z,43.26
2022-08-05T20:45:01.506Z,43.20
2022-08-05T20:47:32.699Z,42.84
2022-08-05T20:50:03.429Z,42.49
2022-08-05T20:52:36.987Z,42.30
2022-08-05T20:55:56.865Z,42.35
2022-08-05T20:58:00.481Z,41.71
2022-08-05T21:00:49.543Z,41.57
2022-08-05T21:03:20.540Z,40.85
2022-08-05T21:05:55.408Z,40.80
2022-08-05T21:08:41.354Z,40.69
2022-08-05T21:12:06.568Z,41.36
2022-08-05T21:14:03.568Z,40.83
2022-08-05T21:16:34.942Z,40.74
2022-08-05T21:19:05.193Z,40.70
2022-08-05T21:21:39.501Z,40.86
2022-08-05T21:24:15.393Z,40.98
2022-08-05T21:26:53.586Z,41.11
2022-08-05T21:29:32.033Z,40.63
2022-08-05T21:32:04.076Z,40.26
2022-08-05T21:34:35.531Z,40.14
2022-08-05T21:37:05.959Z,39.47
2022-08-05T21:39:40.683Z,39.40
2022-08-05T21:42:43.814Z,39.04
2022-08-05T21:45:00.811Z,38.74
2022-08-05T21:47:54.836Z,38.18
2022-08-05T21:50:20.837Z,37.92
2022-08-05T21:52:51.265Z,38.22
2022-08-05T21:56:01.576Z,39.17
2022-08-05T21:58:10.242Z,39.83
2022-08-05T22:00:41.411Z,40.54
2022-08-05T22:03:48.957Z,41.35
2022-08-05T22:06:10.368Z,42.02
2022-08-05T22:08:42.798Z,41.79
2022-08-05T22:11:15.569Z,42.09
2022-08-05T22:14:06.260Z,42.38
2022-08-05T22:16:51.753Z,42.37
2022-08-05T22:20:02.225Z,42.80
2022-08-05T22:22:11.938Z,42.61
2022-08-05T22:24:59.744Z,42.23
2022-08-05T22:28:04.920Z,42.08
2022-08-05T22:30:35.940Z,41.89
2022-08-05T22:33:15.252Z,42.15
2022-08-05T22:35:49.174Z,41.61
2022-08-05T22:38:19.893Z,41.46
2022-08-05T22:40:55.040Z,41.57
2022-08-05T22:43:37.015Z,41.07
2022-08-05T22:46:13.156Z,40.36
2022-08-05T22:48:44.075Z,40.29
2022-08-05T22:51:16.055Z,40.46
2022-08-05T22:53:55.154Z,39.83
2022-08-05T22:56:30.054Z,40.15
2022-08-05T22:59:03.242Z,40.65
2022-08-05T23:02:06.167Z,40.14
2022-08-05T23:04:37.885Z,40.59
2022-08-05T23:07:08.216Z,40.55
2022-08-05T23:09:58.117Z,40.81
2022-08-05T23:12:27.573Z,41.14
2022-08-05T23:14:58.082Z,41.42
2022-08-05T23:17:34.711Z,41.72
2022-08-05T23:20:17.442Z,42.06
2022-08-05T23:22:49.990Z,42.18
2022-08-05T23:25:52.294Z,42.23
2022-08-05T23:28:18.075Z,42.11
2022-08-05T23:30:53.077Z,42.23
2022-08-05T23:34:02.662Z,42.31
2022-08-05T23:36:14.135Z,42.63
2022-08-05T23:38:44.814Z,42.61
2022-08-05T23:41:14.676Z,42.63
2022-08-05T23:44:06.017Z,42.57
2022-08-05T23:46:34.049Z,42.47
2022-08-05T23:49:15.932Z,42.42
2022-08-05T23:52:05.690Z,42.36
2022-08-05T23:54:38.518Z,42.26
2022-08-05T23:57:09.336Z,42.01
